sensor_id;sensor_type;location;lat;lon;timestamp;P1;durP1;ratioP1;P2;durP2;ratioP2
84275;SDS011;74432;51.212;3.254;2024-02-28T00:02:00;14.13;;;8.68;;
84275;SDS011;74432;51.212;3.254;2024-02-28T00:04:26;14.32;;;9.07;;
84275;SDS011;74432;51.212;3.254;2024-02-28T00:06:52;11.70;;;8.57;;
84275;SDS011;74432;51.212;3.254;2024-02-28T00:09:17;15.05;;;8.98;;
84275;SDS011;74432;51.212;3.254;2024-02-28T00:11:43;13.35;;;8.43;;
84275;SDS011;74432;51.212;3.254;2024-02-28T00:14:10;12.88;;;8.18;;
84275;SDS011;74432;51.212;3.254;2024-02-28T00:16:36;12.27;;;8.32;;
84275;SDS011;74432;51.212;3.254;2024-02-28T00:19:05;17.70;;;9.00;;
84275;SDS011;74432;51.212;3.254;2024-02-28T00:21:31;15.32;;;8.75;;
84275;SDS011;74432;51.212;3.254;2024-02-28T00:23:56;13.82;;;8.77;;
84275;SDS011;74432;51.212;3.254;2024-02-28T00:26:22;15.25;;;8.35;;
84275;SDS011;74432;51.212;3.254;2024-02-28T00:28:48;11.40;;;8.38;;
84275;SDS011;74432;51.212;3.254;2024-02-28T00:31:14;19.02;;;9.02;;
84275;SDS011;74432;51.212;3.254;2024-02-28T00:33:39;13.40;;;7.78;;
84275;SDS011;74432;51.212;3.254;2024-02-28T00:36:05;16.17;;;8.98;;
84275;SDS011;74432;51.212;3.254;2024-02-28T00:38:31;14.30;;;8.32;;
84275;SDS011;74432;51.212;3.254;2024-02-28T00:40:57;13.55;;;8.95;;
84275;SDS011;74432;51.212;3.254;2024-02-28T00:43:22;13.50;;;8.25;;
84275;SDS011;74432;51.212;3.254;2024-02-28T00:45:48;15.75;;;9.40;;
84275;SDS011;74432;51.212;3.254;2024-02-28T00:48:14;14.15;;;8.30;;
84275;SDS011;74432;51.212;3.254;2024-02-28T00:50:39;14.52;;;8.68;;
84275;SDS011;74432;51.212;3.254;2024-02-28T00:53:05;12.85;;;8.88;;
84275;SDS011;74432;51.212;3.254;2024-02-28T00:55:31;14.15;;;8.13;;
84275;SDS011;74432;51.212;3.254;2024-02-28T00:57:56;16.23;;;9.55;;
84275;SDS011;74432;51.212;3.254;2024-02-28T01:00:22;15.20;;;8.82;;
84275;SDS011;74432;51.212;3.254;2024-02-28T01:02:48;13.88;;;8.77;;
84275;SDS011;74432;51.212;3.254;2024-02-28T01:05:13;13.55;;;8.88;;
84275;SDS011;74432;51.212;3.254;2024-02-28T01:07:39;15.73;;;9.25;;
84275;SDS011;74432;51.212;3.254;2024-02-28T01:10:06;15.23;;;8.38;;
84275;SDS011;74432;51.212;3.254;2024-02-28T01:12:32;13.25;;;8.43;;
84275;SDS011;74432;51.212;3.254;2024-02-28T01:14:59;13.82;;;8.63;;
84275;SDS011;74432;51.212;3.254;2024-02-28T01:17:25;12.52;;;8.40;;
84275;SDS011;74432;51.212;3.254;2024-02-28T01:19:50;13.23;;;7.85;;
84275;SDS011;74432;51.212;3.254;2024-02-28T01:22:16;12.93;;;7.93;;
84275;SDS011;74432;51.212;3.254;2024-02-28T01:24:42;18.17;;;8.38;;
84275;SDS011;74432;51.212;3.254;2024-02-28T01:27:07;16.10;;;8.25;;
84275;SDS011;74432;51.212;3.254;2024-02-28T01:29:33;13.15;;;7.68;;
84275;SDS011;74432;51.212;3.254;2024-02-28T01:31:59;12.27;;;7.97;;
84275;SDS011;74432;51.212;3.254;2024-02-28T01:34:24;13.93;;;7.05;;
84275;SDS011;74432;51.212;3.254;2024-02-28T01:36:50;10.23;;;6.82;;
84275;SDS011;74432;51.212;3.254;2024-02-28T01:39:16;13.40;;;7.30;;
84275;SDS011;74432;51.212;3.254;2024-02-28T01:41:50;13.02;;;6.28;;
84275;SDS011;74432;51.212;3.254;2024-02-28T01:44:16;10.18;;;6.18;;
84275;SDS011;74432;51.212;3.254;2024-02-28T01:46:43;12.95;;;6.60;;
84275;SDS011;74432;51.212;3.254;2024-02-28T01:49:08;9.68;;;6.13;;
84275;SDS011;74432;51.212;3.254;2024-02-28T01:51:34;13.38;;;6.53;;
84275;SDS011;74432;51.212;3.254;2024-02-28T01:54:00;14.50;;;6.13;;
84275;SDS011;74432;51.212;3.254;2024-02-28T01:56:25;10.77;;;5.63;;
84275;SDS011;74432;51.212;3.254;2024-02-28T01:58:52;11.20;;;6.22;;
84275;SDS011;74432;51.212;3.254;2024-02-28T02:01:19;10.40;;;5.53;;
84275;SDS011;74432;51.212;3.254;2024-02-28T02:03:44;14.30;;;5.03;;
84275;SDS011;74432;51.212;3.254;2024-02-28T02:06:10;12.48;;;5.13;;
84275;SDS011;74432;51.212;3.254;2024-02-28T02:08:37;10.85;;;4.80;;
84275;SDS011;74432;51.212;3.254;2024-02-28T02:11:03;9.80;;;4.78;;
84275;SDS011;74432;51.212;3.254;2024-02-28T02:13:29;8.30;;;4.72;;
84275;SDS011;74432;51.212;3.254;2024-02-28T02:15:55;8.05;;;4.97;;
84275;SDS011;74432;51.212;3.254;2024-02-28T02:18:21;11.52;;;4.50;;
84275;SDS011;74432;51.212;3.254;2024-02-28T02:20:48;6.80;;;4.50;;
84275;SDS011;74432;51.212;3.254;2024-02-28T02:25:48;13.55;;;4.70;;
84275;SDS011;74432;51.212;3.254;2024-02-28T02:28:14;5.85;;;4.07;;
84275;SDS011;74432;51.212;3.254;2024-02-28T02:30:40;9.18;;;5.18;;
84275;SDS011;74432;51.212;3.254;2024-02-28T02:33:07;11.45;;;4.32;;
84275;SDS011;74432;51.212;3.254;2024-02-28T02:35:33;12.88;;;4.95;;
84275;SDS011;74432;51.212;3.254;2024-02-28T02:37:59;9.13;;;4.63;;
84275;SDS011;74432;51.212;3.254;2024-02-28T02:40:25;11.55;;;4.57;;
84275;SDS011;74432;51.212;3.254;2024-02-28T02:42:51;8.10;;;4.82;;
84275;SDS011;74432;51.212;3.254;2024-02-28T02:45:17;11.90;;;4.82;;
84275;SDS011;74432;51.212;3.254;2024-02-28T02:47:42;10.80;;;6.25;;
84275;SDS011;74432;51.212;3.254;2024-02-28T02:50:14;8.23;;;4.67;;
84275;SDS011;74432;51.212;3.254;2024-02-28T02:52:40;7.80;;;5.25;;
84275;SDS011;74432;51.212;3.254;2024-02-28T02:55:06;10.18;;;5.07;;
84275;SDS011;74432;51.212;3.254;2024-02-28T02:57:32;12.02;;;5.50;;
84275;SDS011;74432;51.212;3.254;2024-02-28T02:59:58;11.18;;;5.55;;
84275;SDS011;74432;51.212;3.254;2024-02-28T03:02:24;16.25;;;6.30;;
84275;SDS011;74432;51.212;3.254;2024-02-28T03:04:49;13.85;;;5.90;;
84275;SDS011;74432;51.212;3.254;2024-02-28T03:07:15;11.82;;;5.95;;
84275;SDS011;74432;51.212;3.254;2024-02-28T03:09:41;7.88;;;5.25;;
84275;SDS011;74432;51.212;3.254;2024-02-28T03:12:07;16.27;;;5.38;;
84275;SDS011;74432;51.212;3.254;2024-02-28T03:14:34;8.02;;;4.78;;
84275;SDS011;74432;51.212;3.254;2024-02-28T03:17:00;10.55;;;4.90;;
84275;SDS011;74432;51.212;3.254;2024-02-28T03:19:25;8.82;;;5.57;;
84275;SDS011;74432;51.212;3.254;2024-02-28T03:21:52;10.32;;;5.00;;
84275;SDS011;74432;51.212;3.254;2024-02-28T03:24:17;10.23;;;5.35;;
84275;SDS011;74432;51.212;3.254;2024-02-28T03:26:43;9.55;;;5.15;;
84275;SDS011;74432;51.212;3.254;2024-02-28T03:29:09;11.20;;;5.80;;
84275;SDS011;74432;51.212;3.254;2024-02-28T03:31:35;12.27;;;5.32;;
84275;SDS011;74432;51.212;3.254;2024-02-28T03:34:01;7.65;;;4.85;;
84275;SDS011;74432;51.212;3.254;2024-02-28T03:36:28;12.75;;;5.20;;
84275;SDS011;74432;51.212;3.254;2024-02-28T03:38:54;8.70;;;5.15;;
84275;SDS011;74432;51.212;3.254;2024-02-28T03:41:20;9.43;;;4.85;;
84275;SDS011;74432;51.212;3.254;2024-02-28T03:43:47;8.80;;;4.82;;
84275;SDS011;74432;51.212;3.254;2024-02-28T03:46:12;9.23;;;4.82;;
84275;SDS011;74432;51.212;3.254;2024-02-28T03:48:38;9.77;;;5.22;;
84275;SDS011;74432;51.212;3.254;2024-02-28T03:51:04;8.68;;;5.40;;
84275;SDS011;74432;51.212;3.254;2024-02-28T03:53:30;8.77;;;4.95;;
84275;SDS011;74432;51.212;3.254;2024-02-28T03:55:55;9.02;;;5.30;;
84275;SDS011;74432;51.212;3.254;2024-02-28T03:58:21;9.82;;;5.03;;
84275;SDS011;74432;51.212;3.254;2024-02-28T04:00:47;10.98;;;5.93;;
84275;SDS011;74432;51.212;3.254;2024-02-28T04:03:12;11.48;;;5.57;;
84275;SDS011;74432;51.212;3.254;2024-02-28T04:05:39;11.07;;;5.82;;
84275;SDS011;74432;51.212;3.254;2024-02-28T04:08:05;9.35;;;5.55;;
84275;SDS011;74432;51.212;3.254;2024-02-28T04:10:31;13.82;;;5.70;;
84275;SDS011;74432;51.212;3.254;2024-02-28T04:12:56;11.40;;;6.00;;
84275;SDS011;74432;51.212;3.254;2024-02-28T04:15:22;12.80;;;5.70;;
84275;SDS011;74432;51.212;3.254;2024-02-28T04:17:50;15.23;;;5.82;;
84275;SDS011;74432;51.212;3.254;2024-02-28T04:20:16;13.60;;;6.25;;
84275;SDS011;74432;51.212;3.254;2024-02-28T04:22:42;11.95;;;5.78;;
84275;SDS011;74432;51.212;3.254;2024-02-28T04:25:08;13.02;;;6.90;;
84275;SDS011;74432;51.212;3.254;2024-02-28T04:27:35;13.05;;;6.28;;
84275;SDS011;74432;51.212;3.254;2024-02-28T04:30:01;12.18;;;6.22;;
84275;SDS011;74432;51.212;3.254;2024-02-28T04:32:27;13.75;;;6.43;;
84275;SDS011;74432;51.212;3.254;2024-02-28T04:34:53;11.77;;;6.75;;
84275;SDS011;74432;51.212;3.254;2024-02-28T04:37:19;13.65;;;6.90;;
84275;SDS011;74432;51.212;3.254;2024-02-28T04:39:44;13.65;;;6.72;;
84275;SDS011;74432;51.212;3.254;2024-02-28T04:42:10;18.27;;;7.32;;
84275;SDS011;74432;51.212;3.254;2024-02-28T04:44:36;14.23;;;7.38;;
84275;SDS011;74432;51.212;3.254;2024-02-28T04:47:01;13.05;;;7.45;;
84275;SDS011;74432;51.212;3.254;2024-02-28T04:49:27;10.57;;;7.10;;
84275;SDS011;74432;51.212;3.254;2024-02-28T04:51:53;21.45;;;7.90;;
84275;SDS011;74432;51.212;3.254;2024-02-28T04:54:19;13.80;;;8.10;;
84275;SDS011;74432;51.212;3.254;2024-02-28T04:56:44;14.00;;;6.65;;
84275;SDS011;74432;51.212;3.254;2024-02-28T04:59:11;15.82;;;7.72;;
84275;SDS011;74432;51.212;3.254;2024-02-28T05:01:38;15.73;;;7.97;;
84275;SDS011;74432;51.212;3.254;2024-02-28T05:04:06;16.92;;;8.23;;
84275;SDS011;74432;51.212;3.254;2024-02-28T05:06:32;18.25;;;7.80;;
84275;SDS011;74432;51.212;3.254;2024-02-28T05:08:58;15.57;;;6.88;;
84275;SDS011;74432;51.212;3.254;2024-02-28T05:11:24;13.38;;;7.40;;
84275;SDS011;74432;51.212;3.254;2024-02-28T05:13:49;18.75;;;7.47;;
84275;SDS011;74432;51.212;3.254;2024-02-28T05:16:15;13.55;;;7.25;;
84275;SDS011;74432;51.212;3.254;2024-02-28T05:18:41;16.55;;;7.72;;
84275;SDS011;74432;51.212;3.254;2024-02-28T05:21:09;15.88;;;8.05;;
84275;SDS011;74432;51.212;3.254;2024-02-28T05:23:35;14.75;;;7.90;;
84275;SDS011;74432;51.212;3.254;2024-02-28T05:26:01;17.50;;;7.97;;
84275;SDS011;74432;51.212;3.254;2024-02-28T05:28:38;11.57;;;7.10;;
84275;SDS011;74432;51.212;3.254;2024-02-28T05:31:20;15.73;;;7.45;;
84275;SDS011;74432;51.212;3.254;2024-02-28T05:33:47;14.98;;;7.00;;
84275;SDS011;74432;51.212;3.254;2024-02-28T05:36:12;18.20;;;7.85;;
84275;SDS011;74432;51.212;3.254;2024-02-28T05:38:38;15.55;;;7.72;;
84275;SDS011;74432;51.212;3.254;2024-02-28T05:41:04;12.35;;;7.18;;
84275;SDS011;74432;51.212;3.254;2024-02-28T05:43:29;15.52;;;7.80;;
84275;SDS011;74432;51.212;3.254;2024-02-28T05:45:55;15.75;;;7.93;;
84275;SDS011;74432;51.212;3.254;2024-02-28T05:48:20;13.90;;;7.30;;
84275;SDS011;74432;51.212;3.254;2024-02-28T05:50:46;17.70;;;8.15;;
84275;SDS011;74432;51.212;3.254;2024-02-28T05:53:12;15.88;;;8.02;;
84275;SDS011;74432;51.212;3.254;2024-02-28T05:55:37;15.23;;;8.75;;
84275;SDS011;74432;51.212;3.254;2024-02-28T05:58:03;20.75;;;9.65;;
84275;SDS011;74432;51.212;3.254;2024-02-28T06:00:29;14.27;;;8.82;;
84275;SDS011;74432;51.212;3.254;2024-02-28T06:02:54;19.63;;;9.10;;
84275;SDS011;74432;51.212;3.254;2024-02-28T06:05:20;20.35;;;9.63;;
84275;SDS011;74432;51.212;3.254;2024-02-28T06:07:46;17.98;;;8.95;;
84275;SDS011;74432;51.212;3.254;2024-02-28T06:10:11;22.23;;;9.80;;
84275;SDS011;74432;51.212;3.254;2024-02-28T06:12:37;22.40;;;9.35;;
84275;SDS011;74432;51.212;3.254;2024-02-28T06:15:04;31.17;;;10.93;;
84275;SDS011;74432;51.212;3.254;2024-02-28T06:17:30;27.35;;;10.40;;
84275;SDS011;74432;51.212;3.254;2024-02-28T06:19:55;26.17;;;10.65;;
84275;SDS011;74432;51.212;3.254;2024-02-28T06:22:21;23.58;;;10.93;;
84275;SDS011;74432;51.212;3.254;2024-02-28T06:24:47;27.52;;;10.48;;
84275;SDS011;74432;51.212;3.254;2024-02-28T06:27:12;29.27;;;11.23;;
84275;SDS011;74432;51.212;3.254;2024-02-28T06:29:38;26.33;;;10.80;;
84275;SDS011;74432;51.212;3.254;2024-02-28T06:32:05;26.38;;;11.45;;
84275;SDS011;74432;51.212;3.254;2024-02-28T06:34:30;25.75;;;11.35;;
84275;SDS011;74432;51.212;3.254;2024-02-28T06:36:59;27.45;;;11.15;;
84275;SDS011;74432;51.212;3.254;2024-02-28T06:39:24;26.42;;;11.75;;
84275;SDS011;74432;51.212;3.254;2024-02-28T06:41:50;23.45;;;11.18;;
84275;SDS011;74432;51.212;3.254;2024-02-28T06:44:18;27.70;;;11.48;;
84275;SDS011;74432;51.212;3.254;2024-02-28T06:46:44;26.27;;;11.13;;
84275;SDS011;74432;51.212;3.254;2024-02-28T06:49:09;26.45;;;11.95;;
84275;SDS011;74432;51.212;3.254;2024-02-28T06:51:35;26.50;;;11.98;;
84275;SDS011;74432;51.212;3.254;2024-02-28T06:54:01;17.85;;;10.50;;
84275;SDS011;74432;51.212;3.254;2024-02-28T06:56:28;25.08;;;10.75;;
84275;SDS011;74432;51.212;3.254;2024-02-28T06:58:55;22.20;;;10.75;;
84275;SDS011;74432;51.212;3.254;2024-02-28T07:01:20;26.42;;;11.27;;
84275;SDS011;74432;51.212;3.254;2024-02-28T07:03:49;26.63;;;11.27;;
84275;SDS011;74432;51.212;3.254;2024-02-28T07:06:15;21.83;;;10.05;;
84275;SDS011;74432;51.212;3.254;2024-02-28T07:08:40;18.58;;;11.13;;
84275;SDS011;74432;51.212;3.254;2024-02-28T07:11:12;20.90;;;10.40;;
84275;SDS011;74432;51.212;3.254;2024-02-28T07:13:39;23.10;;;10.50;;
84275;SDS011;74432;51.212;3.254;2024-02-28T07:16:05;23.13;;;11.00;;
84275;SDS011;74432;51.212;3.254;2024-02-28T07:18:31;19.17;;;10.43;;
84275;SDS011;74432;51.212;3.254;2024-02-28T07:20:57;25.55;;;11.93;;
84275;SDS011;74432;51.212;3.254;2024-02-28T07:23:23;23.10;;;12.65;;
84275;SDS011;74432;51.212;3.254;2024-02-28T07:25:48;25.75;;;11.13;;
84275;SDS011;74432;51.212;3.254;2024-02-28T07:28:14;26.83;;;11.25;;
84275;SDS011;74432;51.212;3.254;2024-02-28T07:30:39;21.60;;;12.15;;
84275;SDS011;74432;51.212;3.254;2024-02-28T07:33:05;23.60;;;11.32;;
84275;SDS011;74432;51.212;3.254;2024-02-28T07:35:31;23.45;;;11.38;;
84275;SDS011;74432;51.212;3.254;2024-02-28T07:37:57;26.58;;;12.32;;
84275;SDS011;74432;51.212;3.254;2024-02-28T07:40:22;22.83;;;11.75;;
84275;SDS011;74432;51.212;3.254;2024-02-28T07:42:48;23.50;;;11.20;;
84275;SDS011;74432;51.212;3.254;2024-02-28T07:45:14;20.02;;;10.77;;
84275;SDS011;74432;51.212;3.254;2024-02-28T07:47:39;22.02;;;11.15;;
84275;SDS011;74432;51.212;3.254;2024-02-28T07:50:06;20.88;;;10.35;;
84275;SDS011;74432;51.212;3.254;2024-02-28T07:52:32;21.08;;;10.88;;
84275;SDS011;74432;51.212;3.254;2024-02-28T07:55:00;18.58;;;10.10;;
84275;SDS011;74432;51.212;3.254;2024-02-28T07:57:27;18.83;;;9.73;;
84275;SDS011;74432;51.212;3.254;2024-02-28T07:59:52;18.15;;;9.95;;
84275;SDS011;74432;51.212;3.254;2024-02-28T08:02:18;15.80;;;10.70;;
84275;SDS011;74432;51.212;3.254;2024-02-28T08:04:45;19.70;;;9.48;;
84275;SDS011;74432;51.212;3.254;2024-02-28T08:07:11;19.83;;;9.77;;
84275;SDS011;74432;51.212;3.254;2024-02-28T08:09:36;18.33;;;9.65;;
84275;SDS011;74432;51.212;3.254;2024-02-28T08:12:02;21.88;;;9.63;;
84275;SDS011;74432;51.212;3.254;2024-02-28T08:14:28;19.08;;;8.52;;
84275;SDS011;74432;51.212;3.254;2024-02-28T08:16:54;19.95;;;9.07;;
84275;SDS011;74432;51.212;3.254;2024-02-28T08:19:20;17.38;;;8.50;;
84275;SDS011;74432;51.212;3.254;2024-02-28T08:21:45;18.10;;;8.18;;
84275;SDS011;74432;51.212;3.254;2024-02-28T08:24:11;16.70;;;9.13;;
84275;SDS011;74432;51.212;3.254;2024-02-28T08:26:37;20.63;;;8.55;;
84275;SDS011;74432;51.212;3.254;2024-02-28T08:29:04;16.17;;;8.73;;
84275;SDS011;74432;51.212;3.254;2024-02-28T08:31:29;13.80;;;7.97;;
84275;SDS011;74432;51.212;3.254;2024-02-28T08:33:55;12.70;;;7.50;;
84275;SDS011;74432;51.212;3.254;2024-02-28T08:36:20;14.20;;;7.28;;
84275;SDS011;74432;51.212;3.254;2024-02-28T08:38:46;15.57;;;8.32;;
84275;SDS011;74432;51.212;3.254;2024-02-28T08:41:12;18.02;;;7.82;;
84275;SDS011;74432;51.212;3.254;2024-02-28T08:43:39;12.85;;;7.00;;
84275;SDS011;74432;51.212;3.254;2024-02-28T08:46:05;14.30;;;7.07;;
84275;SDS011;74432;51.212;3.254;2024-02-28T08:48:34;12.77;;;6.93;;
84275;SDS011;74432;51.212;3.254;2024-02-28T08:50:59;11.75;;;7.15;;
84275;SDS011;74432;51.212;3.254;2024-02-28T08:53:25;13.82;;;6.60;;
84275;SDS011;74432;51.212;3.254;2024-02-28T08:55:51;14.52;;;6.72;;
84275;SDS011;74432;51.212;3.254;2024-02-28T08:58:17;8.52;;;6.00;;
84275;SDS011;74432;51.212;3.254;2024-02-28T09:00:43;11.82;;;6.30;;
84275;SDS011;74432;51.212;3.254;2024-02-28T09:03:08;12.80;;;6.53;;
84275;SDS011;74432;51.212;3.254;2024-02-28T09:05:34;10.40;;;5.97;;
84275;SDS011;74432;51.212;3.254;2024-02-28T09:08:00;12.02;;;6.32;;
84275;SDS011;74432;51.212;3.254;2024-02-28T09:10:26;13.98;;;6.82;;
84275;SDS011;74432;51.212;3.254;2024-02-28T09:12:51;12.60;;;6.93;;
84275;SDS011;74432;51.212;3.254;2024-02-28T09:15:17;10.27;;;6.78;;
84275;SDS011;74432;51.212;3.254;2024-02-28T09:17:43;16.45;;;7.57;;
84275;SDS011;74432;51.212;3.254;2024-02-28T09:20:09;11.48;;;6.93;;
84275;SDS011;74432;51.212;3.254;2024-02-28T09:22:35;14.45;;;7.47;;
84275;SDS011;74432;51.212;3.254;2024-02-28T09:25:01;13.50;;;7.65;;
84275;SDS011;74432;51.212;3.254;2024-02-28T09:27:30;12.30;;;7.35;;
84275;SDS011;74432;51.212;3.254;2024-02-28T09:29:56;14.38;;;8.15;;
84275;SDS011;74432;51.212;3.254;2024-02-28T09:32:21;10.55;;;7.13;;
84275;SDS011;74432;51.212;3.254;2024-02-28T09:34:48;13.57;;;7.57;;
84275;SDS011;74432;51.212;3.254;2024-02-28T09:37:14;12.10;;;7.15;;
84275;SDS011;74432;51.212;3.254;2024-02-28T09:39:42;10.82;;;7.20;;
84275;SDS011;74432;51.212;3.254;2024-02-28T09:42:09;14.38;;;8.07;;
84275;SDS011;74432;51.212;3.254;2024-02-28T09:44:35;10.68;;;7.43;;
84275;SDS011;74432;51.212;3.254;2024-02-28T09:47:02;14.05;;;8.27;;
84275;SDS011;74432;51.212;3.254;2024-02-28T09:49:28;10.35;;;7.35;;
84275;SDS011;74432;51.212;3.254;2024-02-28T09:51:57;13.25;;;8.15;;
84275;SDS011;74432;51.212;3.254;2024-02-28T09:54:24;15.15;;;8.32;;
84275;SDS011;74432;51.212;3.254;2024-02-28T09:56:50;12.88;;;7.40;;
84275;SDS011;74432;51.212;3.254;2024-02-28T09:59:17;12.98;;;8.43;;
84275;SDS011;74432;51.212;3.254;2024-02-28T10:01:45;13.02;;;8.60;;
84275;SDS011;74432;51.212;3.254;2024-02-28T10:04:20;12.77;;;7.63;;
84275;SDS011;74432;51.212;3.254;2024-02-28T10:06:46;11.45;;;7.78;;
84275;SDS011;74432;51.212;3.254;2024-02-28T10:09:15;16.40;;;8.18;;
84275;SDS011;74432;51.212;3.254;2024-02-28T10:11:41;13.63;;;8.68;;
84275;SDS011;74432;51.212;3.254;2024-02-28T10:14:09;11.65;;;7.68;;
84275;SDS011;74432;51.212;3.254;2024-02-28T10:16:35;15.93;;;8.38;;
84275;SDS011;74432;51.212;3.254;2024-02-28T10:19:02;12.45;;;8.02;;
84275;SDS011;74432;51.212;3.254;2024-02-28T10:21:30;12.38;;;8.15;;
84275;SDS011;74432;51.212;3.254;2024-02-28T10:23:58;12.63;;;7.97;;
84275;SDS011;74432;51.212;3.254;2024-02-28T10:26:24;12.88;;;8.20;;
84275;SDS011;74432;51.212;3.254;2024-02-28T10:28:50;11.00;;;8.27;;
84275;SDS011;74432;51.212;3.254;2024-02-28T10:31:20;12.57;;;8.43;;
84275;SDS011;74432;51.212;3.254;2024-02-28T10:33:46;11.57;;;8.70;;
84275;SDS011;74432;51.212;3.254;2024-02-28T10:36:12;12.80;;;8.48;;
84275;SDS011;74432;51.212;3.254;2024-02-28T10:38:38;13.32;;;8.73;;
84275;SDS011;74432;51.212;3.254;2024-02-28T10:41:04;12.38;;;7.75;;
84275;SDS011;74432;51.212;3.254;2024-02-28T10:43:30;12.98;;;8.35;;
84275;SDS011;74432;51.212;3.254;2024-02-28T10:45:56;12.73;;;8.65;;
84275;SDS011;74432;51.212;3.254;2024-02-28T10:48:25;13.50;;;8.60;;
84275;SDS011;74432;51.212;3.254;2024-02-28T10:50:51;11.68;;;8.23;;
84275;SDS011;74432;51.212;3.254;2024-02-28T10:53:21;15.80;;;8.23;;
84275;SDS011;74432;51.212;3.254;2024-02-28T10:55:54;14.27;;;8.65;;
84275;SDS011;74432;51.212;3.254;2024-02-28T11:00:55;10.70;;;7.90;;
84275;SDS011;74432;51.212;3.254;2024-02-28T11:03:22;15.88;;;8.45;;
84275;SDS011;74432;51.212;3.254;2024-02-28T11:05:47;16.20;;;9.27;;
84275;SDS011;74432;51.212;3.254;2024-02-28T11:08:24;15.32;;;9.23;;
84275;SDS011;74432;51.212;3.254;2024-02-28T11:10:56;14.65;;;8.90;;
84275;SDS011;74432;51.212;3.254;2024-02-28T11:13:31;14.63;;;10.07;;
84275;SDS011;74432;51.212;3.254;2024-02-28T11:16:06;14.85;;;9.57;;
84275;SDS011;74432;51.212;3.254;2024-02-28T11:18:32;18.23;;;9.85;;
84275;SDS011;74432;51.212;3.254;2024-02-28T11:20:58;15.35;;;9.73;;
84275;SDS011;74432;51.212;3.254;2024-02-28T11:23:24;16.48;;;9.57;;
84275;SDS011;74432;51.212;3.254;2024-02-28T11:25:51;14.57;;;9.88;;
84275;SDS011;74432;51.212;3.254;2024-02-28T11:28:17;16.98;;;9.70;;
84275;SDS011;74432;51.212;3.254;2024-02-28T11:30:42;13.43;;;9.38;;
84275;SDS011;74432;51.212;3.254;2024-02-28T11:33:08;15.48;;;9.32;;
84275;SDS011;74432;51.212;3.254;2024-02-28T11:35:34;14.00;;;9.10;;
84275;SDS011;74432;51.212;3.254;2024-02-28T11:38:00;15.02;;;9.80;;
84275;SDS011;74432;51.212;3.254;2024-02-28T11:40:26;12.57;;;9.15;;
84275;SDS011;74432;51.212;3.254;2024-02-28T11:42:52;13.13;;;9.05;;
84275;SDS011;74432;51.212;3.254;2024-02-28T11:45:23;13.32;;;9.25;;
84275;SDS011;74432;51.212;3.254;2024-02-28T11:47:48;13.68;;;8.98;;
84275;SDS011;74432;51.212;3.254;2024-02-28T11:50:14;14.15;;;9.32;;
84275;SDS011;74432;51.212;3.254;2024-02-28T11:52:40;20.25;;;8.75;;
84275;SDS011;74432;51.212;3.254;2024-02-28T11:55:06;12.35;;;8.48;;
84275;SDS011;74432;51.212;3.254;2024-02-28T11:57:35;12.82;;;8.80;;
84275;SDS011;74432;51.212;3.254;2024-02-28T12:00:05;14.02;;;8.73;;
84275;SDS011;74432;51.212;3.254;2024-02-28T12:02:32;13.80;;;8.68;;
84275;SDS011;74432;51.212;3.254;2024-02-28T12:05:04;14.70;;;8.85;;
84275;SDS011;74432;51.212;3.254;2024-02-28T12:09:56;12.38;;;8.20;;
84275;SDS011;74432;51.212;3.254;2024-02-28T12:12:28;12.35;;;8.02;;
84275;SDS011;74432;51.212;3.254;2024-02-28T12:14:57;14.18;;;8.82;;
84275;SDS011;74432;51.212;3.254;2024-02-28T12:17:25;11.00;;;7.95;;
84275;SDS011;74432;51.212;3.254;2024-02-28T12:19:51;12.95;;;7.80;;
84275;SDS011;74432;51.212;3.254;2024-02-28T12:22:17;12.18;;;8.20;;
84275;SDS011;74432;51.212;3.254;2024-02-28T12:24:43;11.35;;;7.97;;
84275;SDS011;74432;51.212;3.254;2024-02-28T12:27:09;12.15;;;8.45;;
84275;SDS011;74432;51.212;3.254;2024-02-28T12:29:34;16.00;;;7.85;;
84275;SDS011;74432;51.212;3.254;2024-02-28T12:32:00;14.82;;;7.88;;
84275;SDS011;74432;51.212;3.254;2024-02-28T12:34:26;16.38;;;8.15;;
84275;SDS011;74432;51.212;3.254;2024-02-28T12:36:51;12.30;;;7.50;;
84275;SDS011;74432;51.212;3.254;2024-02-28T12:39:17;13.80;;;6.78;;
84275;SDS011;74432;51.212;3.254;2024-02-28T12:41:43;12.45;;;6.60;;
84275;SDS011;74432;51.212;3.254;2024-02-28T12:44:08;12.38;;;7.07;;
84275;SDS011;74432;51.212;3.254;2024-02-28T12:46:35;11.52;;;6.47;;
84275;SDS011;74432;51.212;3.254;2024-02-28T12:49:02;12.70;;;6.50;;
84275;SDS011;74432;51.212;3.254;2024-02-28T12:54:11;15.25;;;5.88;;
84275;SDS011;74432;51.212;3.254;2024-02-28T12:56:39;10.30;;;5.85;;
84275;SDS011;74432;51.212;3.254;2024-02-28T12:59:08;10.27;;;5.15;;
84275;SDS011;74432;51.212;3.254;2024-02-28T13:01:34;8.32;;;5.30;;
84275;SDS011;74432;51.212;3.254;2024-02-28T13:04:00;8.90;;;4.88;;
84275;SDS011;74432;51.212;3.254;2024-02-28T13:06:25;7.05;;;4.53;;
84275;SDS011;74432;51.212;3.254;2024-02-28T13:08:52;6.82;;;4.97;;
84275;SDS011;74432;51.212;3.254;2024-02-28T13:11:18;8.68;;;5.30;;
84275;SDS011;74432;51.212;3.254;2024-02-28T13:13:45;8.07;;;4.85;;
84275;SDS011;74432;51.212;3.254;2024-02-28T13:16:18;8.15;;;5.15;;
84275;SDS011;74432;51.212;3.254;2024-02-28T13:18:44;7.35;;;4.30;;
84275;SDS011;74432;51.212;3.254;2024-02-28T13:21:11;7.20;;;4.45;;
84275;SDS011;74432;51.212;3.254;2024-02-28T13:23:37;9.02;;;4.40;;
84275;SDS011;74432;51.212;3.254;2024-02-28T13:26:03;6.80;;;4.40;;
84275;SDS011;74432;51.212;3.254;2024-02-28T13:28:29;8.73;;;4.63;;
84275;SDS011;74432;51.212;3.254;2024-02-28T13:30:58;4.18;;;3.42;;
84275;SDS011;74432;51.212;3.254;2024-02-28T13:33:24;11.77;;;3.78;;
84275;SDS011;74432;51.212;3.254;2024-02-28T13:35:51;7.50;;;3.92;;
84275;SDS011;74432;51.212;3.254;2024-02-28T13:38:17;6.32;;;4.07;;
84275;SDS011;74432;51.212;3.254;2024-02-28T13:40:44;11.43;;;4.05;;
84275;SDS011;74432;51.212;3.254;2024-02-28T13:43:10;6.75;;;3.20;;
84275;SDS011;74432;51.212;3.254;2024-02-28T13:45:40;4.88;;;3.40;;
84275;SDS011;74432;51.212;3.254;2024-02-28T13:48:15;7.18;;;3.83;;
84275;SDS011;74432;51.212;3.254;2024-02-28T13:50:46;5.65;;;3.15;;
84275;SDS011;74432;51.212;3.254;2024-02-28T13:53:13;5.15;;;3.13;;
84275;SDS011;74432;51.212;3.254;2024-02-28T13:55:40;6.03;;;3.35;;
84275;SDS011;74432;51.212;3.254;2024-02-28T13:58:07;4.85;;;3.28;;
84275;SDS011;74432;51.212;3.254;2024-02-28T14:00:34;4.72;;;2.95;;
84275;SDS011;74432;51.212;3.254;2024-02-28T14:03:01;6.97;;;3.67;;
84275;SDS011;74432;51.212;3.254;2024-02-28T14:05:27;4.53;;;3.10;;
84275;SDS011;74432;51.212;3.254;2024-02-28T14:07:53;3.95;;;2.78;;
84275;SDS011;74432;51.212;3.254;2024-02-28T14:10:19;7.75;;;2.85;;
84275;SDS011;74432;51.212;3.254;2024-02-28T14:12:46;5.53;;;3.13;;
84275;SDS011;74432;51.212;3.254;2024-02-28T14:15:12;4.78;;;3.30;;
84275;SDS011;74432;51.212;3.254;2024-02-28T14:17:38;4.65;;;3.00;;
84275;SDS011;74432;51.212;3.254;2024-02-28T14:20:04;5.55;;;3.30;;
84275;SDS011;74432;51.212;3.254;2024-02-28T14:22:31;3.38;;;3.00;;
84275;SDS011;74432;51.212;3.254;2024-02-28T14:24:58;5.05;;;3.03;;
84275;SDS011;74432;51.212;3.254;2024-02-28T14:27:24;4.85;;;2.75;;
84275;SDS011;74432;51.212;3.254;2024-02-28T14:29:55;6.53;;;2.72;;
84275;SDS011;74432;51.212;3.254;2024-02-28T14:32:20;3.97;;;3.10;;
84275;SDS011;74432;51.212;3.254;2024-02-28T14:34:46;7.00;;;2.83;;
84275;SDS011;74432;51.212;3.254;2024-02-28T14:37:14;4.18;;;2.83;;
84275;SDS011;74432;51.212;3.254;2024-02-28T14:39:39;15.68;;;2.97;;
84275;SDS011;74432;51.212;3.254;2024-02-28T14:42:05;3.13;;;2.65;;